Time;durP1;ratioP1;P1;durP2;ratioP2;P2;SDS_P1;SDS_P2;PMS_P1;PMS_P2;Temp;Humidity;BMP_temperature;BMP_pressure;BME280_temperature;BME280_humidity;BME280_pressure;Samples;Min_cycle;Max_cycle;Signal;HPM_P1;HPM_P2
2023/03/23 00:01:30;;;;;;;;;;;17.70;55.00;;;;;;5111835;28;19920;-66
2023/03/23 00:03:57;;;;;;;;;;;17.70;55.00;;;;;;5093924;28;19924;-66
2023/03/23 00:06:23;;;;;;;;;;;17.70;55.00;;;;;;5093577;28;19923;-67
2023/03/23 00:08:52;;;;;;;;;;;17.70;55.10;;;;;;5112295;28;19927;-66
2023/03/23 00:11:19;;;;;;;;;;;17.70;55.10;;;;;;5094188;28;19919;-66
2023/03/23 00:13:45;;;;;;;;;;;17.70;55.10;;;;;;5112064;28;19927;-68
2023/03/23 00:16:19;;;;;;;;;;;17.70;55.10;;;;;;5094175;28;19920;-66
2023/03/23 00:18:45;;;;;;;;;;;17.70;55.10;;;;;;5111884;28;20408;-66
2023/03/23 00:21:10;;;;;;;;;;;17.70;55.10;;;;;;5095688;28;19927;-66
2023/03/23 00:23:36;;;;;;;;;;;17.70;55.10;;;;;;5097048;28;19973;-66
2023/03/23 00:26:01;;;;;;;;;;;17.70;55.20;;;;;;5115378;28;19955;-66
2023/03/23 00:28:27;;;;;;;;;;;17.70;55.20;;;;;;5097382;28;19939;-66
2023/03/23 00:30:57;;;;;;;;;;;17.60;55.10;;;;;;5116106;28;19920;-66
2023/03/23 00:33:24;;;;;;;;;;;17.60;55.10;;;;;;5115839;28;19919;-66
2023/03/23 00:35:52;;;;;;;;;;;17.60;55.20;;;;;;5098055;28;20363;-66
2023/03/23 00:38:19;;;;;;;;;;;17.60;55.10;;;;;;5116093;28;20272;-66
2023/03/23 00:40:46;;;;;;;;;;;17.60;55.10;;;;;;5115529;28;19969;-66
2023/03/23 00:43:13;;;;;;;;;;;17.60;55.10;;;;;;5114940;28;19953;-66
2023/03/23 00:45:39;;;;;;;;;;;17.60;55.10;;;;;;5097499;28;19966;-67
2023/03/23 00:48:07;;;;;;;;;;;17.60;55.10;;;;;;5097435;28;19986;-67
2023/03/23 00:50:33;;;;;;;;;;;17.60;55.00;;;;;;5097235;28;19959;-66
2023/03/23 00:52:58;;;;;;;;;;;17.60;55.10;;;;;;5131824;27;19927;-66
2023/03/23 00:55:25;;;;;;;;;;;17.60;55.10;;;;;;5131463;27;20324;-66
2023/03/23 00:57:51;;;;;;;;;;;17.60;55.10;;;;;;5097230;28;19920;-67
2023/03/23 01:00:17;;;;;;;;;;;17.60;55.20;;;;;;5114932;28;20256;-67
2023/03/23 01:02:44;;;;;;;;;;;17.60;55.10;;;;;;5114825;28;20049;-67
2023/03/23 01:05:10;;;;;;;;;;;17.60;55.10;;;;;;5114931;28;20302;-66
2023/03/23 01:07:36;;;;;;;;;;;17.60;55.10;;;;;;5096599;28;19927;-67
2023/03/23 01:10:02;;;;;;;;;;;17.60;55.10;;;;;;5096759;28;19919;-67
2023/03/23 01:12:28;;;;;;;;;;;17.60;55.10;;;;;;5115111;28;20040;-67
2023/03/23 01:14:53;;;;;;;;;;;17.60;55.00;;;;;;5114772;28;19926;-67
2023/03/23 01:17:19;;;;;;;;;;;17.60;55.10;;;;;;5096786;28;20367;-67
2023/03/23 01:19:45;;;;;;;;;;;17.50;54.90;;;;;;5114792;28;20370;-67
2023/03/23 01:22:10;;;;;;;;;;;17.60;55.00;;;;;;5114881;28;20002;-67
2023/03/23 01:24:36;;;;;;;;;;;17.60;55.00;;;;;;5096340;28;19926;-67
2023/03/23 01:27:06;;;;;;;;;;;17.50;55.00;;;;;;5114730;28;19942;-67
2023/03/23 01:29:33;;;;;;;;;;;17.50;55.00;;;;;;5096827;28;20390;-67
2023/03/23 01:31:59;;;;;;;;;;;17.50;54.90;;;;;;5130298;27;19951;-67
2023/03/23 01:34:24;;;;;;;;;;;17.60;55.00;;;;;;5114767;28;19966;-67
2023/03/23 01:36:50;;;;;;;;;;;17.60;55.00;;;;;;5130585;27;19920;-68
2023/03/23 01:39:15;;;;;;;;;;;17.50;54.90;;;;;;5130232;27;19924;-67
2023/03/23 01:41:41;;;;;;;;;;;17.50;55.00;;;;;;5114757;28;20022;-67
2023/03/23 01:44:26;;;;;;;;;;;17.50;54.90;;;;;;5096238;28;19923;-67
2023/03/23 01:46:54;;;;;;;;;;;17.50;54.90;;;;;;5096069;28;19923;-67
2023/03/23 01:49:23;;;;;;;;;;;17.50;54.90;;;;;;5114519;28;20006;-67
2023/03/23 01:51:51;;;;;;;;;;;17.50;55.00;;;;;;5095994;28;19920;-66
2023/03/23 01:54:19;;;;;;;;;;;17.50;54.90;;;;;;5114290;28;19959;-66
2023/03/23 01:56:50;;;;;;;;;;;17.50;54.90;;;;;;5095943;28;20049;-67
2023/03/23 01:59:15;;;;;;;;;;;17.60;54.90;;;;;;5095646;28;19927;-67
2023/03/23 02:01:44;;;;;;;;;;;17.60;54.90;;;;;;5114235;28;20458;-67
2023/03/23 02:04:11;;;;;;;;;;;17.90;54.70;;;;;;5095856;28;19926;-67
2023/03/23 02:06:37;;;;;;;;;;;18.10;54.30;;;;;;5113714;28;19923;-67
2023/03/23 02:09:05;;;;;;;;;;;18.50;53.80;;;;;;5113987;28;19923;-67
2023/03/23 02:11:31;;;;;;;;;;;18.90;53.10;;;;;;5095630;28;20382;-67
2023/03/23 02:13:57;;;;;;;;;;;19.50;52.40;;;;;;5114185;28;19927;-67
2023/03/23 02:19:15;;;;;;;;;;;20.50;50.10;;;;;;5089396;28;19938;-66
2023/03/23 02:24:41;;;;;;;;;;;21.40;48.40;;;;;;5108887;27;20209;-66
2023/03/23 02:27:11;;;;;;;;;;;21.80;47.70;;;;;;5107609;28;19973;-66
2023/03/23 02:29:44;;;;;;;;;;;22.10;47.10;;;;;;5108678;28;19973;-67
2023/03/23 02:32:29;;;;;;;;;;;22.40;46.50;;;;;;5108263;28;19920;-67
2023/03/23 02:34:59;;;;;;;;;;;22.60;45.80;;;;;;5108032;28;19931;-66
2023/03/23 02:37:27;;;;;;;;;;;22.70;45.60;;;;;;5109583;28;19946;-67
2023/03/23 02:39:56;;;;;;;;;;;22.90;45.30;;;;;;5108275;28;19958;-66
2023/03/23 02:42:25;;;;;;;;;;;22.90;44.90;;;;;;5107716;28;19939;-66
2023/03/23 02:44:52;;;;;;;;;;;23.00;44.80;;;;;;5108809;28;20038;-67
2023/03/23 02:47:20;;;;;;;;;;;22.90;44.70;;;;;;5107559;28;19920;-67
2023/03/23 02:49:47;;;;;;;;;;;22.90;44.80;;;;;;5108288;28;20011;-67
2023/03/23 02:52:16;;;;;;;;;;;22.80;44.60;;;;;;5109181;28;20382;-67
2023/03/23 02:54:43;;;;;;;;;;;22.70;44.60;;;;;;5109611;28;19952;-67
2023/03/23 02:57:08;;;;;;;;;;;22.60;44.70;;;;;;5108007;28;19924;-67
2023/03/23 02:59:34;;;;;;;;;;;22.50;44.90;;;;;;5108629;28;20295;-67
2023/03/23 03:02:02;;;;;;;;;;;22.40;45.10;;;;;;5107833;28;20355;-67
2023/03/23 03:04:28;;;;;;;;;;;22.20;45.30;;;;;;5107080;28;19920;-66
2023/03/23 03:07:15;;;;;;;;;;;22.10;45.40;;;;;;5107669;28;19920;-67
2023/03/23 03:12:31;;;;;;;;;;;21.80;45.60;;;;;;5109921;27;19941;-67
2023/03/23 03:15:01;;;;;;;;;;;21.60;45.80;;;;;;5108826;28;19920;-68
2023/03/23 03:17:28;;;;;;;;;;;21.60;45.90;;;;;;5108205;28;19931;-67
2023/03/23 03:19:57;;;;;;;;;;;21.60;46.00;;;;;;5107900;28;19920;-67
2023/03/23 03:22:23;;;;;;;;;;;21.50;46.10;;;;;;5108124;28;19920;-67
2023/03/23 03:24:49;;;;;;;;;;;21.50;46.20;;;;;;5108047;28;19919;-67
2023/03/23 03:27:16;;;;;;;;;;;21.50;46.20;;;;;;5107931;28;20375;-67
2023/03/23 03:29:43;;;;;;;;;;;21.40;46.20;;;;;;5108541;28;20367;-67
2023/03/23 03:32:11;;;;;;;;;;;21.40;46.30;;;;;;5109493;28;19924;-67
2023/03/23 03:34:37;;;;;;;;;;;21.40;46.20;;;;;;5109410;28;19924;-67
2023/03/23 03:37:05;;;;;;;;;;;21.40;46.20;;;;;;5108652;28;20320;-69
2023/03/23 03:39:30;;;;;;;;;;;21.40;46.20;;;;;;5108327;28;19920;-66
2023/03/23 03:41:56;;;;;;;;;;;21.40;46.20;;;;;;5108484;28;19924;-67
2023/03/23 03:44:21;;;;;;;;;;;21.50;46.20;;;;;;5107948;28;19981;-67
2023/03/23 03:46:47;;;;;;;;;;;21.50;46.10;;;;;;5108124;28;19920;-67
2023/03/23 03:49:12;;;;;;;;;;;21.50;45.90;;;;;;5107909;28;19920;-67
2023/03/23 03:51:39;;;;;;;;;;;21.60;45.90;;;;;;5108165;28;19978;-67
2023/03/23 03:54:05;;;;;;;;;;;21.60;45.90;;;;;;5109413;28;19920;-67
2023/03/23 03:56:36;;;;;;;;;;;21.70;45.80;;;;;;5107243;28;20294;-67
2023/03/23 03:59:02;;;;;;;;;;;21.70;45.80;;;;;;5108567;28;19920;-67
2023/03/23 04:01:28;;;;;;;;;;;21.70;45.80;;;;;;5106974;28;19920;-67
2023/03/23 04:03:54;;;;;;;;;;;21.70;45.60;;;;;;5106618;28;19920;-67
2023/03/23 04:06:20;;;;;;;;;;;21.70;45.70;;;;;;5106809;28;19963;-67
2023/03/23 04:08:46;;;;;;;;;;;21.70;45.60;;;;;;5106571;28;19927;-67
2023/03/23 04:11:13;;;;;;;;;;;21.70;45.70;;;;;;5108731;28;20291;-67
2023/03/23 04:13:39;;;;;;;;;;;21.70;45.80;;;;;;5110126;28;19923;-67
2023/03/23 04:16:05;;;;;;;;;;;21.60;45.70;;;;;;5128279;28;19920;-67
2023/03/23 04:18:32;;;;;;;;;;;21.60;45.70;;;;;;5145122;27;19927;-67
2023/03/23 04:20:59;;;;;;;;;;;21.60;45.80;;;;;;5110159;28;19920;-67
2023/03/23 04:23:25;;;;;;;;;;;21.60;45.80;;;;;;5098623;28;19943;-67
2023/03/23 04:25:52;;;;;;;;;;;21.60;45.70;;;;;;5114600;28;20313;-67
2023/03/23 04:28:18;;;;;;;;;;;21.60;45.70;;;;;;5096456;28;19977;-67
2023/03/23 04:30:44;;;;;;;;;;;21.60;45.70;;;;;;5114801;28;19924;-67
2023/03/23 04:33:14;;;;;;;;;;;21.60;45.70;;;;;;5096773;28;19926;-67
2023/03/23 04:35:40;;;;;;;;;;;21.60;45.70;;;;;;5097047;28;19920;-67
2023/03/23 04:38:07;;;;;;;;;;;21.60;45.60;;;;;;5097090;28;20361;-67
2023/03/23 04:40:35;;;;;;;;;;;21.60;45.70;;;;;;5096423;28;20379;-66
2023/03/23 04:43:05;;;;;;;;;;;21.60;45.70;;;;;;5096801;28;19920;-67
2023/03/23 04:45:31;;;;;;;;;;;21.60;45.80;;;;;;5096039;28;19923;-67
2023/03/23 04:47:57;;;;;;;;;;;21.60;45.70;;;;;;5130254;27;19955;-67
2023/03/23 04:50:24;;;;;;;;;;;21.60;45.60;;;;;;5115070;28;19971;-67
2023/03/23 04:52:51;;;;;;;;;;;21.60;45.70;;;;;;5114630;28;19920;-67
2023/03/23 04:55:17;;;;;;;;;;;21.60;45.80;;;;;;5114706;28;19924;-66
2023/03/23 04:57:43;;;;;;;;;;;21.60;45.70;;;;;;5096221;28;19980;-67
2023/03/23 05:00:15;;;;;;;;;;;21.60;45.60;;;;;;5096165;28;20371;-67
2023/03/23 05:02:41;;;;;;;;;;;21.60;45.50;;;;;;5096227;28;19920;-67
2023/03/23 05:05:07;;;;;;;;;;;21.60;45.60;;;;;;5114028;28;20426;-66
2023/03/23 05:07:33;;;;;;;;;;;21.60;45.50;;;;;;5113864;28;19927;-66
2023/03/23 05:09:59;;;;;;;;;;;21.60;45.50;;;;;;5114056;28;19920;-66
2023/03/23 05:12:24;;;;;;;;;;;21.60;45.40;;;;;;5114910;28;19919;-66
2023/03/23 05:14:50;;;;;;;;;;;21.60;45.50;;;;;;5096365;28;19965;-66
2023/03/23 05:17:16;;;;;;;;;;;21.60;45.40;;;;;;5114771;28;19920;-66
2023/03/23 05:19:44;;;;;;;;;;;21.60;45.40;;;;;;5096484;28;20446;-66
2023/03/23 05:22:12;;;;;;;;;;;21.60;45.50;;;;;;5096446;28;19985;-66
2023/03/23 05:24:38;;;;;;;;;;;21.60;45.50;;;;;;5096157;28;19920;-66
2023/03/23 05:27:03;;;;;;;;;;;21.60;45.50;;;;;;5129807;27;20400;-66
2023/03/23 05:29:30;;;;;;;;;;;21.60;45.40;;;;;;5096255;28;19919;-66
2023/03/23 05:31:59;;;;;;;;;;;21.60;45.50;;;;;;5114733;28;19969;-66
2023/03/23 05:34:28;;;;;;;;;;;21.60;45.40;;;;;;5094957;28;19924;-66
2023/03/23 05:36:55;;;;;;;;;;;21.60;45.40;;;;;;5096093;28;20391;-66
2023/03/23 05:39:21;;;;;;;;;;;21.70;45.40;;;;;;5095772;28;20379;-66
2023/03/23 05:41:46;;;;;;;;;;;21.60;45.30;;;;;;5095930;28;20010;-66
2023/03/23 05:44:13;;;;;;;;;;;21.70;45.40;;;;;;5113820;28;19920;-66
2023/03/23 05:46:38;;;;;;;;;;;21.70;45.40;;;;;;5113550;28;20410;-66
2023/03/23 05:49:04;;;;;;;;;;;21.60;45.30;;;;;;5129488;27;19920;-66
2023/03/23 05:51:30;;;;;;;;;;;21.70;45.30;;;;;;5095679;28;20407;-66
2023/03/23 05:53:56;;;;;;;;;;;21.70;45.30;;;;;;5113895;28;19973;-68
2023/03/23 05:56:21;;;;;;;;;;;21.70;45.30;;;;;;5095648;28;20111;-66
2023/03/23 05:58:50;;;;;;;;;;;21.70;45.30;;;;;;5095812;28;19981;-66
2023/03/23 06:01:16;;;;;;;;;;;21.70;45.20;;;;;;5113051;28;19927;-66
2023/03/23 06:03:41;;;;;;;;;;;21.70;45.30;;;;;;5112634;28;19920;-66
2023/03/23 06:06:09;;;;;;;;;;;21.70;45.20;;;;;;5112226;28;19927;-66
2023/03/23 06:08:36;;;;;;;;;;;21.70;45.20;;;;;;5094035;28;19920;-66
2023/03/23 06:11:02;;;;;;;;;;;21.70;45.10;;;;;;5093918;28;19946;-70
2023/03/23 06:13:28;;;;;;;;;;;21.70;45.10;;;;;;5112986;28;20366;-66
2023/03/23 06:15:57;;;;;;;;;;;21.80;45.20;;;;;;5112423;28;20605;-66
2023/03/23 06:18:23;;;;;;;;;;;21.80;45.10;;;;;;5112191;28;19927;-66
2023/03/23 06:20:49;;;;;;;;;;;21.80;45.10;;;;;;5094155;28;19984;-66
2023/03/23 06:23:14;;;;;;;;;;;21.80;45.10;;;;;;5111837;28;19919;-66
2023/03/23 06:25:40;;;;;;;;;;;21.80;45.40;;;;;;5112092;28;20354;-67
2023/03/23 06:28:06;;;;;;;;;;;21.80;45.10;;;;;;5111924;28;20365;-66
2023/03/23 06:30:31;;;;;;;;;;;21.70;45.00;;;;;;5112172;28;19930;-66
2023/03/23 06:32:57;;;;;;;;;;;21.80;45.00;;;;;;5094062;28;19930;-66
2023/03/23 06:35:23;;;;;;;;;;;21.80;45.00;;;;;;5094158;28;20399;-66
2023/03/23 06:37:48;;;;;;;;;;;21.80;45.00;;;;;;5094279;28;19919;-66
2023/03/23 06:40:14;;;;;;;;;;;21.80;45.00;;;;;;5094206;28;19920;-66
2023/03/23 06:42:39;;;;;;;;;;;21.80;45.00;;;;;;5111889;28;20306;-66
2023/03/23 06:45:05;;;;;;;;;;;21.80;45.00;;;;;;5093304;28;20007;-67
2023/03/23 06:47:31;;;;;;;;;;;21.80;44.90;;;;;;5109600;28;20393;-67
2023/03/23 06:49:56;;;;;;;;;;;21.80;45.00;;;;;;5092798;28;19924;-66
2023/03/23 06:52:23;;;;;;;;;;;21.80;45.00;;;;;;5111909;28;19924;-66
2023/03/23 06:54:49;;;;;;;;;;;21.80;45.10;;;;;;5126972;27;19920;-64
2023/03/23 06:57:15;;;;;;;;;;;21.80;45.20;;;;;;5093467;28;19923;-64
2023/03/23 06:59:41;;;;;;;;;;;21.80;45.40;;;;;;5107629;28;19924;-64
2023/03/23 07:02:09;;;;;;;;;;;21.70;45.60;;;;;;5108535;28;20417;-64
2023/03/23 07:04:35;;;;;;;;;;;21.60;45.60;;;;;;5107782;28;19920;-66
2023/03/23 07:07:01;;;;;;;;;;;21.60;45.80;;;;;;5107244;28;19920;-64
2023/03/23 07:09:26;;;;;;;;;;;21.50;45.90;;;;;;5109413;28;19924;-64
2023/03/23 07:11:52;;;;;;;;;;;21.50;46.10;;;;;;5090160;28;19930;-65
2023/03/23 07:14:18;;;;;;;;;;;21.50;46.20;;;;;;5086960;28;19923;-64
2023/03/23 07:16:43;;;;;;;;;;;21.50;46.30;;;;;;5101178;28;20042;-66
2023/03/23 07:19:09;;;;;;;;;;;21.50;46.30;;;;;;5102985;28;20320;-66
2023/03/23 07:21:34;;;;;;;;;;;21.60;46.30;;;;;;5087685;28;20128;-66
2023/03/23 07:24:00;;;;;;;;;;;21.60;46.20;;;;;;5101191;28;19959;-66
2023/03/23 07:26:25;;;;;;;;;;;21.60;46.10;;;;;;5081619;28;19946;-64
2023/03/23 07:28:51;;;;;;;;;;;21.80;46.20;;;;;;5051068;28;20362;-64
2023/03/23 07:31:17;;;;;;;;;;;21.80;45.90;;;;;;5101495;27;20212;-64
2023/03/23 07:33:43;;;;;;;;;;;21.90;45.90;;;;;;5071251;28;19927;-64
2023/03/23 07:36:09;;;;;;;;;;;21.90;45.80;;;;;;5086115;28;20371;-64
2023/03/23 07:38:35;;;;;;;;;;;21.90;45.90;;;;;;5105724;27;20048;-64
2023/03/23 07:41:01;;;;;;;;;;;21.90;46.10;;;;;;5088617;28;20686;-64
2023/03/23 07:43:27;;;;;;;;;;;21.80;46.10;;;;;;5073202;28;19930;-64
2023/03/23 07:45:53;;;;;;;;;;;21.70;46.40;;;;;;5071445;28;20337;-65
2023/03/23 07:48:18;;;;;;;;;;;21.70;46.60;;;;;;5093533;28;19919;-66
2023/03/23 07:50:44;;;;;;;;;;;21.80;46.70;;;;;;5111666;28;19923;-65
2023/03/23 07:53:09;;;;;;;;;;;21.90;46.60;;;;;;5092003;28;19924;-66
2023/03/23 07:55:35;;;;;;;;;;;21.90;46.50;;;;;;5077337;28;19978;-68
2023/03/23 07:58:00;;;;;;;;;;;21.90;46.50;;;;;;5092784;28;19927;-66
2023/03/23 08:00:26;;;;;;;;;;;21.90;46.50;;;;;;5100491;28;19924;-67
2023/03/23 08:02:55;;;;;;;;;;;21.90;46.50;;;;;;5079814;28;20041;-65
2023/03/23 08:05:21;;;;;;;;;;;21.90;46.60;;;;;;5098223;28;19923;-65
2023/03/23 08:07:48;;;;;;;;;;;21.90;46.60;;;;;;5108155;27;19969;-66
2023/03/23 08:10:14;;;;;;;;;;;21.80;47.40;;;;;;5081393;28;19976;-64
2023/03/23 08:12:41;;;;;;;;;;;21.80;47.00;;;;;;5096233;28;19928;-65
2023/03/23 08:15:07;;;;;;;;;;;21.80;46.90;;;;;;5079086;28;19928;-65
2023/03/23 08:17:34;;;;;;;;;;;21.80;47.00;;;;;;5077916;28;19924;-67
2023/03/23 08:19:59;;;;;;;;;;;21.60;46.90;;;;;;5108089;27;19930;-65
2023/03/23 08:22:25;;;;;;;;;;;21.60;47.20;;;;;;5094219;28;20283;-66
2023/03/23 08:24:52;;;;;;;;;;;21.60;47.30;;;;;;5075055;28;19955;-65
2023/03/23 08:27:18;;;;;;;;;;;21.50;47.20;;;;;;5094381;28;20368;-64
2023/03/23 08:29:45;;;;;;;;;;;21.50;47.30;;;;;;5093156;28;20558;-66
2023/03/23 08:32:11;;;;;;;;;;;21.50;47.40;;;;;;5093285;28;19931;-68
2023/03/23 08:34:37;;;;;;;;;;;21.50;47.50;;;;;;5090822;28;20202;-69
2023/03/23 08:37:03;;;;;;;;;;;21.60;47.50;;;;;;5078874;28;20435;-66
2023/03/23 08:39:30;;;;;;;;;;;21.70;47.40;;;;;;5106179;27;19924;-68
2023/03/23 08:41:55;;;;;;;;;;;21.80;47.10;;;;;;5076353;28;19924;-66
2023/03/23 08:44:21;;;;;;;;;;;21.90;47.00;;;;;;5095990;28;19935;-66
2023/03/23 08:46:46;;;;;;;;;;;22.00;46.70;;;;;;5075739;28;19927;-67
2023/03/23 08:49:12;;;;;;;;;;;22.00;46.60;;;;;;5092286;28;20414;-67
2023/03/23 08:51:37;;;;;;;;;;;22.10;46.40;;;;;;5078153;28;19934;-67
2023/03/23 08:54:03;;;;;;;;;;;22.10;46.40;;;;;;5071977;28;19928;-65
2023/03/23 08:56:28;;;;;;;;;;;22.10;46.30;;;;;;5081118;28;20387;-65
2023/03/23 08:58:54;;;;;;;;;;;22.10;46.30;;;;;;5078166;28;20072;-65
2023/03/23 09:01:29;;;;;;;;;;;22.10;46.20;;;;;;5092954;28;20386;-66
2023/03/23 09:03:54;;;;;;;;;;;22.20;46.30;;;;;;5094543;28;19920;-66
2023/03/23 09:06:20;;;;;;;;;;;22.20;46.20;;;;;;5095167;28;19924;-68
2023/03/23 09:08:45;;;;;;;;;;;22.20;46.20;;;;;;5109100;27;19923;-69
2023/03/23 09:11:11;;;;;;;;;;;22.20;46.40;;;;;;5092745;27;19982;-70
2023/03/23 09:13:37;;;;;;;;;;;22.20;46.50;;;;;;5075473;28;20716;-66
2023/03/23 09:16:04;;;;;;;;;;;22.10;46.30;;;;;;5096522;27;19920;-66
2023/03/23 09:18:30;;;;;;;;;;;22.10;46.40;;;;;;5091674;28;19967;-65
2023/03/23 09:20:57;;;;;;;;;;;22.10;46.30;;;;;;5076997;28;19951;-65
2023/03/23 09:23:22;;;;;;;;;;;22.10;46.40;;;;;;5072955;28;20458;-70
2023/03/23 09:25:48;;;;;;;;;;;22.00;46.30;;;;;;5093977;28;20014;-65
2023/03/23 09:28:14;;;;;;;;;;;22.00;46.50;;;;;;5076656;28;20268;-69
2023/03/23 09:30:41;;;;;;;;;;;22.00;46.40;;;;;;5091139;28;19920;-69
2023/03/23 09:33:08;;;;;;;;;;;22.00;46.40;;;;;;5076285;28;20112;-70
2023/03/23 09:35:38;;;;;;;;;;;22.00;46.50;;;;;;5093724;28;20304;-70
2023/03/23 09:38:05;;;;;;;;;;;22.10;46.40;;;;;;5091825;28;20365;-67
2023/03/23 09:40:41;;;;;;;;;;;22.00;46.30;;;;;;5077444;28;20406;-72
2023/03/23 09:46:08;;;;;;;;;;;22.00;46.30;;;;;;5093483;27;19920;-72
2023/03/23 09:48:42;;;;;;;;;;;22.10;46.20;;;;;;5071395;28;20001;-72
2023/03/23 09:54:01;;;;;;;;;;;22.20;46.10;;;;;;5087782;27;19920;-77
2023/03/23 09:56:28;;;;;;;;;;;22.20;46.10;;;;;;5092508;28;20315;-74
2023/03/23 09:58:57;;;;;;;;;;;22.20;46.20;;;;;;5079182;28;20395;-77
2023/03/23 10:01:44;;;;;;;;;;;22.20;46.20;;;;;;5077961;28;20024;-70
2023/03/23 10:04:16;;;;;;;;;;;22.20;46.20;;;;;;5077280;28;19963;-77
2023/03/23 10:06:42;;;;;;;;;;;22.30;46.30;;;;;;5078895;28;20308;-69
2023/03/23 10:09:11;;;;;;;;;;;22.30;46.20;;;;;;5071332;28;19935;-71
2023/03/23 10:14:44;;;;;;;;;;;22.30;46.20;;;;;;5068036;27;19920;-68
2023/03/23 10:17:15;;;;;;;;;;;22.20;46.30;;;;;;5067878;28;20063;-70
2023/03/23 10:19:47;;;;;;;;;;;22.20;46.40;;;;;;5067554;28;19955;-70
2023/03/23 10:22:17;;;;;;;;;;;22.20;46.50;;;;;;5107276;27;19924;-69
2023/03/23 10:24:46;;;;;;;;;;;22.10;46.50;;;;;;5068679;28;20288;-70
2023/03/23 10:27:18;;;;;;;;;;;22.20;46.50;;;;;;5080878;28;19924;-67
2023/03/23 10:29:50;;;;;;;;;;;22.10;46.60;;;;;;5074838;28;19924;-68
2023/03/23 10:32:17;;;;;;;;;;;22.10;46.70;;;;;;5103835;27;20325;-70
2023/03/23 10:37:25;;;;;;;;;;;22.00;46.80;;;;;;5092958;27;19926;-70
2023/03/23 10:39:54;;;;;;;;;;;22.00;47.00;;;;;;5121525;27;19921;-77
2023/03/23 10:45:25;;;;;;;;;;;21.90;47.10;;;;;;5071282;27;20396;-69
2023/03/23 10:50:36;;;;;;;;;;;21.90;47.30;;;;;;5073410;27;19923;-68
2023/03/23 10:53:05;;;;;;;;;;;21.90;47.40;;;;;;5104317;27;19931;-70
2023/03/23 10:55:39;;;;;;;;;;;21.80;47.40;;;;;;5070595;28;19924;-71
2023/03/23 10:58:06;;;;;;;;;;;21.90;47.50;;;;;;5086006;28;19983;-69
2023/03/23 11:00:32;;;;;;;;;;;21.80;47.50;;;;;;5104268;27;20380;-71
2023/03/23 11:03:00;;;;;;;;;;;21.80;47.60;;;;;;5075983;28;19925;-69
2023/03/23 11:05:32;;;;;;;;;;;21.80;47.60;;;;;;5070685;28;20759;-72
2023/03/23 11:07:59;;;;;;;;;;;21.70;47.70;;;;;;5073679;28;20383;-72
2023/03/23 11:10:26;;;;;;;;;;;21.60;47.90;;;;;;5073725;28;20496;-67
2023/03/23 11:12:52;;;;;;;;;;;21.60;47.90;;;;;;5074295;28;19925;-73
2023/03/23 11:15:22;;;;;;;;;;;21.60;48.00;;;;;;5103283;28;19936;-70
2023/03/23 11:18:04;;;;;;;;;;;21.50;48.00;;;;;;5079308;28;19935;-66
2023/03/23 11:20:35;;;;;;;;;;;21.50;48.10;;;;;;5073131;28;19970;-74
2023/03/23 11:23:07;;;;;;;;;;;21.40;48.30;;;;;;5066589;28;19924;-74
2023/03/23 11:25:33;;;;;;;;;;;21.50;48.40;;;;;;5069820;28;20449;-72
2023/03/23 11:28:00;;;;;;;;;;;21.50;48.30;;;;;;5074429;28;19924;-73
2023/03/23 11:30:27;;;;;;;;;;;21.50;48.20;;;;;;5074514;28;19932;-73
2023/03/23 11:32:54;;;;;;;;;;;21.60;48.10;;;;;;5068658;28;19980;-73
2023/03/23 11:35:21;;;;;;;;;;;21.60;48.00;;;;;;5069711;28;19924;-73
2023/03/23 11:37:48;;;;;;;;;;;21.60;47.90;;;;;;5075318;28;19946;-73
2023/03/23 11:40:16;;;;;;;;;;;21.60;47.80;;;;;;5075666;28;19935;-73
2023/03/23 11:42:55;;;;;;;;;;;21.60;47.80;;;;;;5077531;28;19924;-72
2023/03/23 11:51:00;;;;;;;;;;;21.60;47.40;;;;;;5077758;27;19921;-71
2023/03/23 11:53:31;;;;;;;;;;;21.50;47.30;;;;;;5086444;28;19990;-73
2023/03/23 11:56:04;;;;;;;;;;;21.50;47.40;;;;;;5073535;28;19925;-70
2023/03/23 11:58:32;;;;;;;;;;;21.50;47.20;;;;;;5073704;28;19974;-73
2023/03/23 12:01:00;;;;;;;;;;;21.50;47.40;;;;;;5069954;28;20346;-68
2023/03/23 12:06:21;;;;;;;;;;;21.60;47.30;;;;;;5075301;27;19920;-71
2023/03/23 12:09:06;;;;;;;;;;;21.70;47.30;;;;;;5095862;28;20299;-71
2023/03/23 12:11:52;;;;;;;;;;;21.70;47.30;;;;;;5057538;28;19921;-71
2023/03/23 12:14:26;;;;;;;;;;;21.70;47.10;;;;;;5095464;28;20253;-71
2023/03/23 12:17:11;;;;;;;;;;;21.80;47.10;;;;;;5092516;28;19921;-73
2023/03/23 12:19:57;;;;;;;;;;;21.90;47.10;;;;;;5057787;28;19927;-76
2023/03/23 12:22:32;;;;;;;;;;;21.90;47.00;;;;;;5090795;28;19964;-74
2023/03/23 12:27:45;;;;;;;;;;;22.00;47.00;;;;;;5083843;27;19927;-70
2023/03/23 12:30:20;;;;;;;;;;;21.90;47.20;;;;;;5089766;28;19927;-71
2023/03/23 12:32:54;;;;;;;;;;;21.90;47.30;;;;;;5118505;27;19955;-71
2023/03/23 12:43:52;;;;;;;;;;;21.60;47.50;;;;;;5086063;27;19924;-72
2023/03/23 12:49:05;;;;;;;;;;;21.50;47.60;;;;;;5085473;27;20497;-70
2023/03/23 12:54:17;;;;;;;;;;;21.50;47.80;;;;;;5081656;27;20256;-69
2023/03/23 12:56:49;;;;;;;;;;;21.50;47.70;;;;;;5070796;28;20299;-67
2023/03/23 12:59:21;;;;;;;;;;;21.60;47.70;;;;;;5074284;28;20314;-69
2023/03/23 13:01:51;;;;;;;;;;;21.50;47.60;;;;;;5074591;28;20442;-70
2023/03/23 13:04:20;;;;;;;;;;;21.50;47.60;;;;;;5105153;28;19928;-72
2023/03/23 13:06:46;;;;;;;;;;;21.50;47.60;;;;;;5071396;28;19920;-67
2023/03/23 13:12:09;;;;;;;;;;;21.50;47.60;;;;;;5089775;27;19960;-74
2023/03/23 13:23:14;;;;;;;;;;;21.40;47.50;;;;;;5052492;28;20303;-74
2023/03/23 13:31:35;;;;;;;;;;;21.40;47.50;;;;;;5082566;27;20307;-72
2023/03/23 13:36:42;;;;;;;;;;;21.40;47.40;;;;;;5107752;27;1834325;-73
2023/03/23 13:39:28;;;;;;;;;;;21.40;47.20;;;;;;5157028;27;20369;-71
2023/03/23 13:47:35;;;;;;;;;;;21.40;47.00;;;;;;5050232;28;19920;-74
2023/03/23 13:50:24;;;;;;;;;;;21.30;46.90;;;;;;5064749;28;19925;-70
2023/03/23 13:52:52;;;;;;;;;;;21.50;47.10;;;;;;5043301;28;19931;-77
2023/03/23 13:55:29;;;;;;;;;;;21.40;47.00;;;;;;5053209;28;19967;-68
2023/03/23 14:00:45;;;;;;;;;;;21.50;47.10;;;;;;5086161;27;19921;-71
2023/03/23 14:11:17;;;;;;;;;;;21.60;46.90;;;;;;5101546;27;19969;-76
2023/03/23 14:16:31;;;;;;;;;;;21.50;46.90;;;;;;5099487;27;20461;-72
2023/03/23 14:18:57;;;;;;;;;;;21.50;46.80;;;;;;5113315;28;20319;-74
2023/03/23 14:21:35;;;;;;;;;;;21.40;46.70;;;;;;5080385;28;19931;-72
2023/03/23 14:24:02;;;;;;;;;;;21.40;46.60;;;;;;5077154;28;19971;-75
2023/03/23 14:26:28;;;;;;;;;;;21.50;46.90;;;;;;5072553;28;20241;-75
2023/03/23 14:28:53;;;;;;;;;;;21.50;46.70;;;;;;5114226;28;20375;-71
2023/03/23 14:31:20;;;;;;;;;;;21.50;46.60;;;;;;5081949;28;19926;-75
2023/03/23 14:33:47;;;;;;;;;;;21.50;46.70;;;;;;5114936;28;19920;-77
2023/03/23 14:36:14;;;;;;;;;;;21.50;46.80;;;;;;5114037;28;20362;-70
2023/03/23 14:38:39;;;;;;;;;;;21.50;46.60;;;;;;5064060;28;19991;-72
2023/03/23 14:41:05;;;;;;;;;;;21.50;46.60;;;;;;5084151;28;19924;-72
2023/03/23 14:43:33;;;;;;;;;;;21.50;46.60;;;;;;5082636;28;20023;-72
2023/03/23 14:46:01;;;;;;;;;;;21.50;46.80;;;;;;5082239;28;20395;-71
2023/03/23 14:48:27;;;;;;;;;;;21.50;46.70;;;;;;5079247;28;19920;-72
2023/03/23 14:50:57;;;;;;;;;;;21.50;46.70;;;;;;5114186;28;20505;-73
2023/03/23 14:56:11;;;;;;;;;;;21.40;46.70;;;;;;5104993;27;19918;-72
2023/03/23 14:58:37;;;;;;;;;;;21.50;46.70;;;;;;5104333;28;19973;-73
2023/03/23 15:01:05;;;;;;;;;;;21.40;46.70;;;;;;5102108;28;20366;-72
2023/03/23 15:03:33;;;;;;;;;;;21.50;46.80;;;;;;5102483;28;19927;-76
2023/03/23 15:06:00;;;;;;;;;;;21.50;46.80;;;;;;5101231;28;19920;-73
2023/03/23 15:08:30;;;;;;;;;;;21.50;46.70;;;;;;5102900;28;20457;-72
2023/03/23 15:11:02;;;;;;;;;;;21.50;46.80;;;;;;5101289;28;19920;-74
2023/03/23 15:13:28;;;;;;;;;;;21.40;46.70;;;;;;5102508;28;19920;-75
2023/03/23 15:16:01;;;;;;;;;;;21.40;46.80;;;;;;5102860;28;20035;-73
2023/03/23 15:18:30;;;;;;;;;;;21.40;46.90;;;;;;5104797;28;19959;-74
2023/03/23 15:20:55;;;;;;;;;;;21.40;46.90;;;;;;5104936;28;19924;-72
2023/03/23 15:23:22;;;;;;;;;;;21.30;46.90;;;;;;5101937;28;20471;-75
2023/03/23 15:25:50;;;;;;;;;;;21.30;47.00;;;;;;5103251;28;19978;-74
2023/03/23 15:28:17;;;;;;;;;;;21.30;47.00;;;;;;5102026;28;19924;-74
2023/03/23 15:30:51;;;;;;;;;;;21.30;47.10;;;;;;5103818;28;19920;-73
2023/03/23 15:33:17;;;;;;;;;;;21.30;47.10;;;;;;5103548;28;20275;-73
2023/03/23 15:35:47;;;;;;;;;;;21.30;47.20;;;;;;5101784;28;19932;-74
2023/03/23 15:38:17;;;;;;;;;;;21.20;47.20;;;;;;5105733;28;19920;-74
2023/03/23 15:40:49;;;;;;;;;;;21.20;47.30;;;;;;5104742;28;19932;-73
2023/03/23 15:43:19;;;;;;;;;;;21.10;47.30;;;;;;5105422;28;19923;-74
2023/03/23 15:45:55;;;;;;;;;;;21.10;47.40;;;;;;5104650;28;19943;-73
2023/03/23 15:48:22;;;;;;;;;;;21.10;47.60;;;;;;5103503;28;20014;-73
2023/03/23 15:50:48;;;;;;;;;;;21.00;47.60;;;;;;5105708;28;19920;-73
2023/03/23 15:53:19;;;;;;;;;;;21.00;47.70;;;;;;5100460;28;20383;-73